To NAV CANADA Home Page Login to a new session Search on AWWS site Feedback and Comments Disclaimer Vers la page française équivalente Tips FAQ What's new on the site To the Forecasts and Observations / NOTAM section To "File a Flight Plan" website Publications and other links Update of the User's profile FIC Telephone Numbers My Weather Data Folder Route Weather Data Regional Weather Data Local Weather Data To the Forecasts and Observations / NOTAM section
Request Generated 03/23/2017 at 00:15:37 UTC . Weather information available at that time is displayed.

METAR/TAF

RED DEER REGIONAL/AB    

METAR CYQF 230000Z 23004KT 15SM SCT080 BKN170 04/M00 A2962 RMK AC3AC4
SLP069=
METAR CYQF 222300Z 28004KT 15SM FEW080 BKN180 OVC250 04/M01 A2962 RMK
AC2AC4CI2 SLP066=
METAR CYQF 222200Z 24005KT 220V310 15SM FEW060 SCT180 BKN250 03/M01
A2961 RMK SC1AC3CI3 SLP065=

TAF CYQF 222349Z 2300/2312 28005KT P6SM FEW120 BKN200
FM230500 VRB03KT P6SM FEW200 PROB30 2309/2312 1/2SM FZFG VV002
RMK NXT FCST BY 230600Z=
Your time UTC time
Weather data provided by Environment Canada and NAV CANADA